Time;durP1;ratioP1;P1;durP2;ratioP2;P2;SDS_P1;SDS_P2;PMS_P1;PMS_P2;Temp;Humidity;BMP_temperature;BMP_pressure;BME280_temperature;BME280_humidity;BME280_pressure;Samples;Min_cycle;Max_cycle;Signal;HPM_P1;HPM_P2
2022/09/03 00:02:01;;;;;;;2.40;0.88;;;17.10;83.90;;;;;;5121667;27;20111;-66
2022/09/03 00:04:42;;;;;;;3.30;1.00;;;17.10;84.10;;;;;;5123878;27;20040;-68
2022/09/03 00:07:19;;;;;;;2.53;0.90;;;17.00;84.00;;;;;;5125577;27;20036;-67
2022/09/03 00:09:54;;;;;;;3.83;0.80;;;17.00;84.10;;;;;;5111443;28;20039;-69
2022/09/03 00:12:28;;;;;;;3.10;0.90;;;17.00;84.10;;;;;;5127561;27;20035;-67
2022/09/03 00:15:01;;;;;;;2.47;0.93;;;16.90;84.10;;;;;;5109644;28;20040;-67
2022/09/03 00:17:33;;;;;;;2.47;0.80;;;16.90;84.20;;;;;;5123895;27;20035;-67
2022/09/03 00:20:14;;;;;;;1.17;0.70;;;16.90;84.20;;;;;;5107982;28;20464;-67
2022/09/03 00:22:47;;;;;;;3.88;0.80;;;16.80;84.30;;;;;;5108971;28;20043;-68
2022/09/03 00:25:19;;;;;;;2.65;0.98;;;16.80;84.40;;;;;;5122392;27;20065;-67
2022/09/03 00:27:50;;;;;;;1.60;0.65;;;16.80;84.50;;;;;;5118158;27;20038;-67
2022/09/03 00:30:17;;;;;;;3.10;0.73;;;16.70;84.50;;;;;;5096351;28;20130;-67
2022/09/03 00:33:08;;;;;;;2.58;0.73;;;16.70;84.50;;;;;;5094111;28;20092;-67
2022/09/03 00:35:52;;;;;;;0.80;0.65;;;16.70;84.60;;;;;;5119112;27;20043;-68
2022/09/03 00:38:21;;;;;;;4.57;0.90;;;16.70;84.70;;;;;;5098838;28;20070;-70
2022/09/03 00:40:46;;;;;;;1.73;0.75;;;16.70;84.60;;;;;;5103968;28;20393;-67
2022/09/03 00:43:31;;;;;;;4.30;0.70;;;16.60;84.60;;;;;;5111033;28;20131;-68
2022/09/03 00:46:33;;;;;;;5.53;1.30;;;16.60;84.70;;;;;;5093006;28;20551;-67
2022/09/03 00:49:19;;;;;;;0.95;0.70;;;16.60;84.90;;;;;;5094027;27;20049;-67
2022/09/03 00:51:52;;;;;;;1.98;0.70;;;16.50;84.80;;;;;;5125451;27;20032;-65
2022/09/03 00:54:24;;;;;;;3.15;0.80;;;16.50;85.00;;;;;;5110527;27;20065;-67
2022/09/03 00:57:09;;;;;;;2.53;0.80;;;16.40;84.90;;;;;;5130903;27;20039;-67
2022/09/03 00:59:51;;;;;;;4.50;0.80;;;16.50;85.10;;;;;;5109559;28;20043;-67
2022/09/03 01:02:36;;;;;;;4.40;0.70;;;16.40;85.10;;;;;;5113908;27;20039;-68
2022/09/03 01:05:25;;;;;;;3.38;0.80;;;16.40;85.20;;;;;;5110419;27;20374;-66
2022/09/03 01:07:54;;;;;;;1.05;0.70;;;16.30;85.20;;;;;;5129555;27;20080;-68
2022/09/03 01:10:55;;;;;;;2.70;0.75;;;16.30;85.20;;;;;;5109070;28;20050;-67
2022/09/03 01:13:21;;;;;;;4.20;0.82;;;16.30;85.30;;;;;;5116740;27;20085;-68
2022/09/03 01:16:03;;;;;;;2.85;0.82;;;16.30;85.40;;;;;;5120399;27;20421;-66
2022/09/03 01:18:41;;;;;;;1.83;0.70;;;16.20;85.40;;;;;;5096502;28;20043;-67
2022/09/03 01:21:29;;;;;;;1.58;0.80;;;16.20;85.50;;;;;;5114257;27;20040;-66
2022/09/03 01:24:32;;;;;;;4.07;0.80;;;16.20;85.70;;;;;;5117364;27;20361;-66
2022/09/03 01:27:19;;;;;;;4.47;0.85;;;16.20;85.50;;;;;;5011220;28;20144;-68
2022/09/03 01:29:59;;;;;;;3.58;0.70;;;16.10;85.70;;;;;;5028993;28;20535;-69
2022/09/03 01:32:44;;;;;;;1.50;0.70;;;16.10;85.70;;;;;;5011404;28;20056;-66
2022/09/03 01:35:39;;;;;;;3.33;0.70;;;16.10;85.80;;;;;;5011412;28;20059;-67
2022/09/03 01:38:19;;;;;;;3.97;0.70;;;16.10;85.80;;;;;;5016140;28;20045;-67
2022/09/03 01:40:47;;;;;;;2.95;0.70;;;16.00;86.00;;;;;;5016234;28;20057;-68
2022/09/03 01:43:50;;;;;;;1.65;0.50;;;16.00;85.90;;;;;;5011935;28;20140;-69
2022/09/03 01:46:29;;;;;;;1.92;0.60;;;15.90;86.10;;;;;;4952911;28;20042;-68
2022/09/03 01:49:15;;;;;;;2.47;0.70;;;15.90;86.10;;;;;;4952540;28;20058;-66
2022/09/03 01:51:41;;;;;;;2.42;0.98;;;15.90;86.30;;;;;;4952756;28;20587;-67
2022/09/03 01:54:30;;;;;;;0.75;0.68;;;15.80;86.20;;;;;;4951588;28;20057;-67
2022/09/03 01:57:23;;;;;;;3.75;0.80;;;15.80;86.30;;;;;;4966635;28;20142;-67
2022/09/03 02:00:02;;;;;;;3.97;0.80;;;15.80;86.40;;;;;;4952537;28;20496;-67
2022/09/03 02:02:29;;;;;;;2.03;0.80;;;15.80;86.50;;;;;;4952200;28;20103;-66
2022/09/03 02:05:07;;;;;;;2.83;0.77;;;15.80;86.60;;;;;;5017972;28;20053;-70
2022/09/03 02:07:37;;;;;;;3.75;0.93;;;15.70;86.60;;;;;;5013583;28;20044;-66
2022/09/03 02:10:13;;;;;;;2.15;0.80;;;15.80;86.60;;;;;;5030698;28;20044;-69
2022/09/03 02:12:41;;;;;;;2.70;0.70;;;15.70;86.60;;;;;;5029476;28;20088;-69
2022/09/03 02:15:12;;;;;;;3.88;0.90;;;15.70;86.70;;;;;;5030113;28;20045;-64
2022/09/03 02:17:41;;;;;;;2.30;0.60;;;15.70;86.70;;;;;;5030507;28;20033;-67
2022/09/03 02:20:12;;;;;;;2.95;0.85;;;15.70;86.80;;;;;;5071718;28;20168;-70
2022/09/03 02:22:39;;;;;;;1.63;0.70;;;15.70;86.80;;;;;;5116487;27;20032;-65
2022/09/03 02:25:06;;;;;;;2.40;0.80;;;15.70;86.70;;;;;;5113247;27;20032;-68
2022/09/03 02:27:32;;;;;;;1.27;0.70;;;15.70;86.70;;;;;;5109037;28;20031;-68
2022/09/03 02:29:58;;;;;;;2.15;0.70;;;15.70;86.70;;;;;;5108511;28;20177;-68
2022/09/03 02:32:24;;;;;;;1.20;0.52;;;15.80;86.90;;;;;;5105067;28;20050;-67
2022/09/03 02:34:50;;;;;;;2.78;0.70;;;15.80;86.80;;;;;;5127064;28;20045;-65
2022/09/03 02:37:18;;;;;;;4.05;0.80;;;15.80;86.70;;;;;;5111748;28;20032;-65
2022/09/03 02:39:44;;;;;;;3.35;0.68;;;15.80;86.70;;;;;;5109410;28;20472;-70
2022/09/03 02:42:12;;;;;;;1.80;0.82;;;15.80;86.70;;;;;;5129363;28;20027;-67
2022/09/03 02:44:55;;;;;;;1.75;0.60;;;15.80;86.90;;;;;;5115400;28;20408;-67
2022/09/03 02:47:22;;;;;;;4.57;0.77;;;15.80;86.90;;;;;;5111897;28;20039;-66
2022/09/03 02:49:48;;;;;;;5.68;0.70;;;15.80;86.70;;;;;;5115559;28;20038;-69
2022/09/03 02:52:14;;;;;;;1.70;0.60;;;15.90;86.80;;;;;;5114217;28;20035;-69
2022/09/03 02:54:40;;;;;;;2.80;0.70;;;15.90;86.70;;;;;;5109759;28;20035;-68
2022/09/03 02:57:12;;;;;;;5.95;0.80;;;15.90;86.60;;;;;;5106896;28;20039;-68
2022/09/03 02:59:38;;;;;;;2.30;0.90;;;15.90;86.70;;;;;;5123990;28;20037;-66
2022/09/03 03:02:04;;;;;;;3.17;1.35;;;15.90;87.20;;;;;;5107486;28;20036;-68
2022/09/03 03:04:31;;;;;;;2.20;0.60;;;15.90;86.60;;;;;;5106782;28;20061;-67
2022/09/03 03:06:57;;;;;;;4.57;0.70;;;15.90;86.70;;;;;;5125219;27;20036;-67
2022/09/03 03:09:23;;;;;;;2.50;0.88;;;15.90;86.70;;;;;;5115575;27;20047;-66
2022/09/03 03:11:50;;;;;;;1.15;0.50;;;15.90;86.70;;;;;;5118822;27;20119;-66
2022/09/03 03:14:17;;;;;;;2.70;0.68;;;15.90;86.80;;;;;;5110777;27;20048;-68
2022/09/03 03:16:43;;;;;;;0.93;0.50;;;15.80;86.70;;;;;;5133297;27;20143;-68
2022/09/03 03:19:09;;;;;;;3.90;0.73;;;15.80;86.80;;;;;;5110056;28;20135;-67
2022/09/03 03:21:34;;;;;;;2.20;0.80;;;15.80;86.80;;;;;;5110177;28;20042;-68
2022/09/03 03:24:01;;;;;;;3.25;0.57;;;15.80;86.80;;;;;;5111944;28;20116;-66
2022/09/03 03:26:27;;;;;;;0.90;0.60;;;15.80;86.80;;;;;;5127245;27;20044;-69
2022/09/03 03:28:56;;;;;;;1.30;0.70;;;15.80;86.80;;;;;;5111045;28;20422;-68
2022/09/03 03:31:23;;;;;;;2.13;0.60;;;15.80;87.00;;;;;;5111024;28;20122;-69
2022/09/03 03:33:53;;;;;;;3.55;0.68;;;15.80;87.00;;;;;;5117989;27;20383;-68
2022/09/03 03:36:19;;;;;;;1.85;0.70;;;15.70;87.10;;;;;;5113102;27;20056;-69
2022/09/03 03:38:45;;;;;;;2.40;0.90;;;15.70;87.10;;;;;;5094934;28;20066;-67
2022/09/03 03:41:18;;;;;;;3.95;0.80;;;15.70;87.30;;;;;;5117244;27;20039;-68
2022/09/03 03:43:44;;;;;;;1.35;0.77;;;15.70;87.30;;;;;;5116730;27;20100;-69
2022/09/03 03:46:10;;;;;;;0.85;0.60;;;15.70;87.30;;;;;;5114708;27;20060;-67
2022/09/03 03:48:37;;;;;;;2.70;0.80;;;15.60;87.30;;;;;;5108513;28;20578;-68
2022/09/03 03:51:06;;;;;;;1.13;0.70;;;15.60;87.30;;;;;;5125887;27;20054;-67
2022/09/03 03:53:37;;;;;;;5.57;0.70;;;15.60;87.50;;;;;;5113907;27;20040;-68
2022/09/03 03:56:05;;;;;;;1.65;0.82;;;15.70;87.50;;;;;;5122860;27;20038;-67
2022/09/03 03:58:32;;;;;;;1.90;0.80;;;15.70;87.60;;;;;;5125895;27;20045;-66
2022/09/03 04:01:13;;;;;;;2.40;0.60;;;15.60;87.60;;;;;;5110920;27;20058;-67
2022/09/03 04:03:38;;;;;;;3.10;1.35;;;15.60;87.60;;;;;;5111095;28;20043;-67
2022/09/03 04:06:05;;;;;;;3.53;0.70;;;15.60;87.70;;;;;;5125523;27;20513;-68
2022/09/03 04:08:34;;;;;;;3.45;0.60;;;15.50;87.70;;;;;;5111885;27;20079;-69
2022/09/03 04:11:01;;;;;;;1.73;0.60;;;15.50;87.80;;;;;;5130100;27;20122;-68
2022/09/03 04:13:35;;;;;;;3.88;0.60;;;15.50;87.80;;;;;;5124131;27;20495;-69
2022/09/03 04:16:05;;;;;;;1.35;0.60;;;15.50;87.90;;;;;;5127051;27;20085;-67
2022/09/03 04:18:32;;;;;;;3.13;0.63;;;15.40;87.90;;;;;;5106711;28;20040;-66
2022/09/03 04:21:03;;;;;;;1.85;0.65;;;15.40;88.00;;;;;;5110095;28;20038;-69
2022/09/03 04:23:37;;;;;;;2.72;0.73;;;15.40;88.20;;;;;;5110694;27;20076;-70
2022/09/03 04:26:04;;;;;;;1.75;0.80;;;15.40;88.30;;;;;;5116196;27;20058;-67
2022/09/03 04:28:31;;;;;;;1.17;0.88;;;15.30;88.30;;;;;;5093623;28;20422;-67
2022/09/03 04:31:05;;;;;;;0.82;0.70;;;15.30;88.50;;;;;;5129718;27;20047;-70
2022/09/03 04:33:32;;;;;;;2.25;0.70;;;15.20;88.60;;;;;;5109383;27;20050;-65
2022/09/03 04:36:16;;;;;;;4.13;0.70;;;15.20;88.70;;;;;;5110247;28;20035;-66
2022/09/03 04:38:43;;;;;;;3.10;0.60;;;15.10;88.90;;;;;;5110357;28;20119;-66
2022/09/03 04:41:12;;;;;;;2.67;0.88;;;15.10;88.90;;;;;;5126095;27;20497;-68
2022/09/03 04:43:41;;;;;;;1.73;0.70;;;15.00;89.10;;;;;;5110999;28;20087;-68
2022/09/03 04:46:07;;;;;;;1.48;0.82;;;15.00;89.20;;;;;;5108775;28;20067;-68
2022/09/03 04:48:35;;;;;;;2.45;0.70;;;15.00;90.00;;;;;;5113699;27;20493;-66
2022/09/03 04:51:06;;;;;;;2.55;0.60;;;14.90;89.40;;;;;;5093484;28;20038;-66
2022/09/03 04:53:38;;;;;;;1.23;0.65;;;14.90;89.60;;;;;;5111599;27;20051;-65
2022/09/03 04:56:12;;;;;;;1.58;0.70;;;14.90;89.80;;;;;;5110328;28;20039;-66
2022/09/03 04:58:37;;;;;;;1.90;0.77;;;14.80;90.00;;;;;;5109141;28;20035;-67
2022/09/03 05:01:08;;;;;;;2.25;0.70;;;14.80;90.00;;;;;;5092356;28;20067;-66
2022/09/03 05:03:35;;;;;;;2.28;0.68;;;14.80;90.10;;;;;;5117054;27;20114;-68
2022/09/03 05:06:01;;;;;;;4.03;0.85;;;14.70;90.10;;;;;;5117852;27;20540;-67
2022/09/03 05:08:27;;;;;;;0.88;0.57;;;14.70;90.20;;;;;;5118616;27;20555;-67
2022/09/03 05:10:59;;;;;;;2.83;0.80;;;14.70;90.20;;;;;;5110099;28;20044;-64
2022/09/03 05:13:25;;;;;;;2.88;0.80;;;14.70;90.30;;;;;;5110780;27;20044;-67
2022/09/03 05:15:51;;;;;;;1.70;0.80;;;14.70;90.40;;;;;;5107907;28;20066;-67
2022/09/03 05:18:17;;;;;;;1.55;0.60;;;14.70;90.40;;;;;;5109721;28;20035;-67
2022/09/03 05:20:42;;;;;;;2.40;0.75;;;14.60;90.50;;;;;;5113799;27;20122;-68
2022/09/03 05:23:08;;;;;;;2.40;0.80;;;14.60;90.50;;;;;;5120178;27;20482;-66
2022/09/03 05:25:36;;;;;;;1.35;0.73;;;14.70;90.50;;;;;;5119755;27;20077;-67
2022/09/03 05:28:02;;;;;;;2.03;0.65;;;14.60;90.60;;;;;;5113345;27;20067;-67
2022/09/03 05:30:29;;;;;;;1.67;0.85;;;14.60;90.60;;;;;;5107986;28;20105;-66
2022/09/03 05:32:55;;;;;;;3.65;0.73;;;14.60;90.90;;;;;;5099179;28;20038;-66
2022/09/03 05:35:21;;;;;;;4.78;1.25;;;14.50;90.70;;;;;;5112724;27;20044;-66
2022/09/03 05:37:47;;;;;;;1.88;0.70;;;14.50;90.80;;;;;;5118967;27;20031;-66
2022/09/03 05:40:13;;;;;;;2.00;0.77;;;14.50;90.80;;;;;;5112409;27;20439;-65
2022/09/03 05:42:39;;;;;;;1.30;0.80;;;14.50;90.90;;;;;;5108081;27;20044;-69
2022/09/03 05:45:09;;;;;;;2.08;0.90;;;14.50;90.90;;;;;;5108483;28;20081;-66
2022/09/03 05:47:39;;;;;;;2.03;0.90;;;14.50;91.10;;;;;;5108217;28;20051;-67
2022/09/03 05:50:07;;;;;;;2.60;0.80;;;14.50;91.10;;;;;;5110346;28;20127;-67
2022/09/03 05:52:33;;;;;;;2.95;0.90;;;14.60;91.10;;;;;;5109246;27;20073;-67
2022/09/03 05:54:59;;;;;;;1.35;0.90;;;14.60;91.10;;;;;;5109277;28;20057;-67
2022/09/03 05:57:25;;;;;;;2.35;1.00;;;14.60;91.20;;;;;;5114230;27;20031;-65
2022/09/03 05:59:51;;;;;;;2.40;0.90;;;14.70;91.10;;;;;;5110902;27;20035;-67
2022/09/03 06:02:18;;;;;;;2.95;1.00;;;14.70;91.10;;;;;;5110072;28;20081;-66
2022/09/03 06:04:43;;;;;;;4.30;1.15;;;14.80;91.20;;;;;;5119287;27;20039;-66
2022/09/03 06:07:09;;;;;;;1.52;0.80;;;14.80;91.20;;;;;;5110324;27;20096;-66
2022/09/03 06:09:34;;;;;;;1.50;0.90;;;14.90;91.20;;;;;;5109173;28;20032;-70
2022/09/03 06:12:00;;;;;;;1.42;0.75;;;14.90;91.20;;;;;;5114455;27;20047;-65
2022/09/03 06:14:26;;;;;;;1.58;0.80;;;15.00;91.20;;;;;;5109929;28;20078;-67
2022/09/03 06:16:51;;;;;;;4.10;0.98;;;15.00;91.20;;;;;;5110230;28;20032;-68
2022/09/03 06:19:18;;;;;;;2.83;0.90;;;15.10;91.20;;;;;;5113406;27;20142;-67
2022/09/03 06:21:44;;;;;;;3.20;0.90;;;15.10;91.20;;;;;;5129598;28;20063;-66
2022/09/03 06:24:23;;;;;;;1.80;0.90;;;15.20;91.10;;;;;;5117143;28;20066;-69
2022/09/03 06:26:49;;;;;;;4.22;0.90;;;15.20;91.20;;;;;;5111668;28;20127;-65
2022/09/03 06:29:18;;;;;;;1.60;0.90;;;15.20;91.10;;;;;;5118065;28;20123;-66
2022/09/03 06:31:44;;;;;;;2.97;0.95;;;15.30;91.10;;;;;;5110271;28;20043;-66
2022/09/03 06:34:09;;;;;;;2.33;0.90;;;15.40;91.10;;;;;;5108970;28;20036;-69
2022/09/03 06:36:35;;;;;;;1.50;0.85;;;15.60;91.00;;;;;;5119879;28;20039;-67
2022/09/03 06:39:00;;;;;;;4.20;1.25;;;15.60;90.90;;;;;;5116880;28;20386;-65
2022/09/03 06:41:31;;;;;;;2.67;1.10;;;15.70;90.90;;;;;;5110196;28;20490;-66
2022/09/03 06:44:03;;;;;;;3.53;0.98;;;15.80;90.90;;;;;;5131594;27;20035;-67
2022/09/03 06:46:34;;;;;;;2.70;1.17;;;15.90;91.00;;;;;;5112511;28;20039;-68
2022/09/03 06:49:00;;;;;;;2.67;1.02;;;16.00;90.70;;;;;;5113167;28;20040;-67
2022/09/03 06:51:28;;;;;;;2.60;0.90;;;16.20;90.60;;;;;;5112803;28;20067;-67
2022/09/03 06:54:02;;;;;;;4.75;1.17;;;16.30;90.90;;;;;;5112482;27;20040;-69
2022/09/03 06:56:28;;;;;;;2.35;0.90;;;16.50;90.50;;;;;;5129393;27;20035;-66
2022/09/03 06:58:59;;;;;;;2.97;1.10;;;16.60;90.40;;;;;;5112183;28;20114;-69
2022/09/03 07:01:27;;;;;;;5.30;1.15;;;16.70;90.30;;;;;;5111320;28;20035;-66
2022/09/03 07:03:55;;;;;;;3.75;1.10;;;16.80;90.40;;;;;;5125374;27;20044;-66
2022/09/03 07:06:22;;;;;;;4.25;1.10;;;17.00;90.30;;;;;;5109310;28;20422;-69
2022/09/03 07:08:48;;;;;;;2.42;1.15;;;17.20;90.20;;;;;;5109192;27;20088;-68
2022/09/03 07:11:16;;;;;;;4.88;1.00;;;17.30;90.00;;;;;;5121950;27;20086;-68
2022/09/03 07:13:47;;;;;;;2.33;1.17;;;17.40;89.80;;;;;;5131878;27;20578;-66
2022/09/03 07:16:18;;;;;;;2.72;1.10;;;17.50;89.50;;;;;;5112455;28;20450;-68
2022/09/03 07:18:45;;;;;;;2.08;1.10;;;17.60;89.00;;;;;;5118813;27;20043;-68
2022/09/03 07:21:13;;;;;;;2.70;1.05;;;17.70;89.00;;;;;;5110385;28;20046;-67
2022/09/03 07:23:39;;;;;;;1.77;1.13;;;17.90;88.90;;;;;;5110823;28;20409;-66
2022/09/03 07:26:12;;;;;;;2.58;0.90;;;18.00;88.40;;;;;;5112505;27;20051;-65
2022/09/03 07:28:40;;;;;;;4.72;1.02;;;18.10;88.20;;;;;;5131241;27;20039;-67
2022/09/03 07:31:10;;;;;;;2.40;1.40;;;18.20;87.90;;;;;;5112155;27;20043;-69
2022/09/03 07:33:36;;;;;;;1.63;1.13;;;18.30;87.90;;;;;;5111820;28;20032;-69
2022/09/03 07:36:05;;;;;;;1.95;1.33;;;18.40;87.90;;;;;;5127672;27;20515;-68
2022/09/03 07:38:32;;;;;;;2.40;1.05;;;18.50;87.60;;;;;;5093923;28;20405;-67
2022/09/03 07:40:59;;;;;;;5.47;1.20;;;18.50;86.80;;;;;;5127371;27;20144;-65
2022/09/03 07:43:32;;;;;;;7.43;1.58;;;18.60;86.90;;;;;;5111419;28;20486;-68
2022/09/03 07:45:58;;;;;;;4.97;1.08;;;18.70;86.70;;;;;;5118031;27;20101;-66
2022/09/03 07:48:24;;;;;;;5.70;1.10;;;18.70;86.40;;;;;;5111056;28;20051;-66
2022/09/03 07:50:50;;;;;;;2.70;1.10;;;18.70;86.30;;;;;;5110896;28;20459;-66
2022/09/03 07:53:16;;;;;;;3.63;1.00;;;18.80;86.40;;;;;;5112209;27;20066;-68
2022/09/03 07:55:45;;;;;;;5.32;1.00;;;18.90;86.20;;;;;;5110283;28;20043;-66
2022/09/03 07:58:11;;;;;;;2.05;1.10;;;19.00;86.10;;;;;;5111726;28;20447;-66
2022/09/03 08:00:38;;;;;;;1.65;0.90;;;19.20;86.20;;;;;;5113558;28;20040;-67
2022/09/03 08:03:07;;;;;;;3.83;1.20;;;19.40;85.80;;;;;;5130152;27;20058;-67
2022/09/03 08:05:34;;;;;;;2.80;0.90;;;19.50;85.70;;;;;;5132946;27;20460;-68
2022/09/03 08:08:00;;;;;;;1.38;1.10;;;19.60;85.40;;;;;;5132929;27;20042;-66
2022/09/03 08:10:29;;;;;;;5.50;0.90;;;19.70;85.00;;;;;;5132783;27;20473;-65
2022/09/03 08:12:56;;;;;;;2.70;1.17;;;19.70;84.70;;;;;;5132765;27;20035;-67
2022/09/03 08:15:22;;;;;;;2.35;1.13;;;19.80;84.50;;;;;;5132247;27;20082;-69
2022/09/03 08:17:48;;;;;;;2.25;0.90;;;19.90;84.70;;;;;;5132596;27;20063;-69
2022/09/03 08:20:14;;;;;;;3.33;1.38;;;19.90;84.40;;;;;;5132293;27;20039;-67
2022/09/03 08:22:40;;;;;;;1.58;1.02;;;20.10;84.60;;;;;;5132377;27;20085;-66
2022/09/03 08:25:06;;;;;;;1.50;1.00;;;20.20;84.50;;;;;;5132204;27;20070;-67
2022/09/03 08:27:32;;;;;;;4.93;1.05;;;20.40;83.70;;;;;;5132548;27;20039;-65
2022/09/03 08:29:58;;;;;;;4.60;0.95;;;20.40;83.60;;;;;;5133588;27;20035;-66
2022/09/03 08:32:23;;;;;;;1.92;1.02;;;20.50;84.30;;;;;;5132052;27;20046;-65
2022/09/03 08:34:51;;;;;;;3.58;1.00;;;20.70;84.10;;;;;;5132191;27;20083;-67
2022/09/03 08:37:17;;;;;;;1.58;0.90;;;20.80;83.90;;;;;;5131798;27;20043;-67
2022/09/03 08:39:43;;;;;;;4.85;1.10;;;21.00;83.90;;;;;;5132177;27;20043;-68
2022/09/03 08:42:17;;;;;;;2.15;0.80;;;21.20;83.70;;;;;;5132022;27;20512;-65
2022/09/03 08:44:54;;;;;;;3.00;1.40;;;21.50;83.00;;;;;;5131750;27;20058;-67
2022/09/03 08:47:28;;;;;;;4.75;1.30;;;21.60;82.40;;;;;;5131736;27;20059;-67
2022/09/03 08:49:59;;;;;;;2.90;1.00;;;21.60;82.20;;;;;;5131827;27;20071;-68
2022/09/03 08:52:25;;;;;;;2.67;1.23;;;21.70;82.30;;;;;;5132870;27;20054;-65
2022/09/03 08:54:57;;;;;;;2.97;1.13;;;21.70;81.90;;;;;;5131541;27;20043;-68
2022/09/03 08:57:24;;;;;;;5.30;0.90;;;21.90;81.60;;;;;;5112745;27;20475;-65
2022/09/03 08:59:54;;;;;;;5.85;1.13;;;22.00;81.70;;;;;;5112423;28;20042;-66
2022/09/03 09:02:34;;;;;;;3.38;1.08;;;22.10;81.30;;;;;;5129503;27;20071;-65
2022/09/03 09:05:15;;;;;;;1.98;0.90;;;22.20;81.50;;;;;;5130849;27;20054;-68
2022/09/03 09:07:47;;;;;;;2.35;1.05;;;22.40;81.50;;;;;;5131392;27;20110;-67
2022/09/03 09:10:28;;;;;;;4.53;1.35;;;22.50;80.60;;;;;;5131221;27;20065;-67
2022/09/03 09:13:22;;;;;;;2.25;1.10;;;22.70;80.80;;;;;;5131210;27;20050;-67
2022/09/03 09:16:09;;;;;;;3.05;1.00;;;22.80;79.90;;;;;;5131532;27;20039;-66
2022/09/03 09:18:55;;;;;;;6.03;0.90;;;22.90;80.80;;;;;;5131504;27;20362;-66
2022/09/03 09:21:29;;;;;;;3.97;0.93;;;23.10;80.40;;;;;;5032081;28;20049;-67
2022/09/03 09:24:00;;;;;;;4.43;0.75;;;23.40;80.50;;;;;;5032220;28;20056;-68
2022/09/03 09:26:27;;;;;;;4.55;0.90;;;23.70;80.00;;;;;;5048746;28;20107;-68
2022/09/03 09:29:13;;;;;;;3.58;0.90;;;23.90;79.60;;;;;;5048711;28;20036;-67
2022/09/03 09:31:39;;;;;;;2.83;0.70;;;24.20;80.10;;;;;;5031914;28;20041;-67
2022/09/03 09:34:07;;;;;;;2.05;0.80;;;24.30;78.30;;;;;;5032248;28;20041;-66
2022/09/03 09:36:50;;;;;;;2.70;1.00;;;24.10;77.70;;;;;;5048774;28;20087;-67
2022/09/03 09:39:17;;;;;;;4.43;0.90;;;24.20;78.40;;;;;;5032339;28;20049;-67
2022/09/03 09:42:10;;;;;;;1.42;0.85;;;24.20;77.30;;;;;;5031905;28;20029;-67
2022/09/03 09:44:40;;;;;;;2.78;0.90;;;24.30;78.50;;;;;;5032068;28;20069;-68
2022/09/03 09:47:12;;;;;;;4.93;1.10;;;24.40;77.20;;;;;;5023602;28;20042;-68
2022/09/03 09:49:53;;;;;;;3.40;0.98;;;24.60;77.10;;;;;;5012516;28;20093;-66
2022/09/03 09:52:24;;;;;;;1.60;0.80;;;24.60;76.10;;;;;;5028486;28;20053;-68
2022/09/03 09:54:51;;;;;;;2.33;0.90;;;24.60;76.30;;;;;;5011909;28;20127;-66
2022/09/03 09:57:21;;;;;;;4.40;1.02;;;24.70;75.80;;;;;;5030264;28;20053;-68
2022/09/03 09:59:49;;;;;;;4.47;1.20;;;24.80;76.20;;;;;;5109795;28;20050;-66
2022/09/03 10:02:27;;;;;;;4.43;1.30;;;25.00;75.70;;;;;;5125674;27;20065;-68
2022/09/03 10:05:10;;;;;;;3.00;1.00;;;25.20;75.50;;;;;;5130372;27;20039;-66
2022/09/03 10:07:36;;;;;;;4.97;0.90;;;25.30;75.00;;;;;;5130505;27;20515;-70
2022/09/03 10:10:14;;;;;;;4.10;1.00;;;25.50;75.30;;;;;;5130593;27;20039;-67
2022/09/03 10:12:50;;;;;;;3.28;0.90;;;25.80;75.20;;;;;;5130438;27;20031;-67
2022/09/03 10:15:49;;;;;;;4.53;0.98;;;26.00;74.60;;;;;;5112711;28;20112;-68
2022/09/03 10:18:43;;;;;;;2.55;1.10;;;26.30;73.70;;;;;;5130691;27;20496;-68
2022/09/03 10:21:21;;;;;;;3.92;1.10;;;26.20;73.80;;;;;;5130433;28;20047;-69
2022/09/03 10:23:57;;;;;;;3.95;0.82;;;26.20;73.00;;;;;;5113337;28;20047;-67
2022/09/03 10:26:29;;;;;;;2.40;0.90;;;26.20;73.10;;;;;;5130394;28;20114;-68
2022/09/03 10:29:01;;;;;;;3.13;0.80;;;26.30;72.50;;;;;;5130176;28;20027;-68
2022/09/03 10:32:09;;;;;;;1.77;0.93;;;26.50;72.20;;;;;;5130537;27;20038;-67
2022/09/03 10:34:41;;;;;;;4.30;1.00;;;26.60;72.40;;;;;;5014378;28;20195;-65
2022/09/03 10:37:10;;;;;;;3.28;1.10;;;26.60;71.50;;;;;;5031421;28;20099;-66
2022/09/03 10:39:36;;;;;;;3.88;1.00;;;26.70;71.90;;;;;;5031063;28;20045;-66
2022/09/03 10:42:32;;;;;;;3.25;0.85;;;26.80;71.40;;;;;;5031233;28;20037;-66
2022/09/03 10:45:18;;;;;;;2.75;0.90;;;27.10;72.10;;;;;;5030801;28;20087;-66
2022/09/03 10:48:13;;;;;;;4.03;0.82;;;27.40;72.60;;;;;;5014660;28;20053;-67
2022/09/03 10:50:48;;;;;;;1.90;0.73;;;27.60;71.40;;;;;;5025466;28;20037;-66
2022/09/03 10:53:30;;;;;;;2.08;0.70;;;27.70;70.80;;;;;;5011541;28;20512;-66
2022/09/03 10:56:16;;;;;;;3.25;0.90;;;27.70;69.40;;;;;;5011368;28;20072;-67
2022/09/03 10:58:44;;;;;;;5.45;0.90;;;27.70;70.00;;;;;;5011550;28;20061;-67
2022/09/03 11:01:31;;;;;;;4.13;0.90;;;27.60;69.10;;;;;;5011514;28;20049;-69
2022/09/03 11:04:16;;;;;;;2.47;1.00;;;27.70;69.50;;;;;;5011163;28;20041;-66
2022/09/03 11:07:00;;;;;;;2.25;0.90;;;27.70;70.00;;;;;;5011372;28;20099;-65
2022/09/03 11:09:34;;;;;;;3.70;0.88;;;27.90;69.00;;;;;;5022464;28;20063;-66
2022/09/03 11:12:18;;;;;;;0.93;0.60;;;27.60;67.90;;;;;;5075423;28;20201;-65
2022/09/03 11:14:49;;;;;;;4.32;0.80;;;27.50;67.80;;;;;;5126424;28;20039;-67
2022/09/03 11:17:28;;;;;;;2.80;1.00;;;27.50;68.30;;;;;;5130154;28;20478;-68
2022/09/03 11:20:03;;;;;;;2.28;0.77;;;27.40;67.60;;;;;;5129611;28;20084;-69
2022/09/03 11:22:30;;;;;;;2.78;1.00;;;27.50;67.60;;;;;;5129935;27;20031;-66
2022/09/03 11:24:58;;;;;;;2.10;1.15;;;27.60;67.80;;;;;;5129614;28;20413;-66
2022/09/03 11:27:52;;;;;;;6.35;0.93;;;27.60;67.20;;;;;;5130560;27;21045;-66
2022/09/03 11:30:33;;;;;;;2.38;0.80;;;27.60;67.00;;;;;;5133287;27;20043;-67
2022/09/03 11:33:06;;;;;;;4.05;0.93;;;27.70;67.20;;;;;;5133195;27;20060;-69
2022/09/03 11:35:40;;;;;;;4.68;1.00;;;27.80;66.50;;;;;;5133398;27;20039;-69
2022/09/03 11:38:19;;;;;;;2.28;0.80;;;27.90;66.10;;;;;;5133223;27;20054;-68
2022/09/03 11:41:14;;;;;;;3.00;0.75;;;27.90;66.50;;;;;;5133498;27;20078;-67
2022/09/03 11:43:41;;;;;;;2.72;0.80;;;28.00;66.50;;;;;;5116004;27;20035;-66
2022/09/03 11:46:21;;;;;;;3.33;0.93;;;28.10;66.10;;;;;;5132805;27;20100;-68
2022/09/03 11:49:08;;;;;;;3.22;1.27;;;28.20;66.10;;;;;;5133108;27;20047;-68
2022/09/03 11:51:36;;;;;;;6.38;1.23;;;28.10;65.80;;;;;;5133171;27;20602;-66
2022/09/03 11:54:11;;;;;;;2.53;0.88;;;28.10;65.60;;;;;;5132678;27;20043;-66
2022/09/03 11:56:37;;;;;;;2.72;0.68;;;27.90;65.20;;;;;;5132938;27;20043;-68
2022/09/03 11:59:12;;;;;;;4.45;0.90;;;27.80;65.80;;;;;;5115546;27;20046;-68
2022/09/03 12:01:43;;;;;;;2.85;0.70;;;27.80;64.90;;;;;;5115777;27;20035;-66
2022/09/03 12:04:14;;;;;;;3.40;0.80;;;27.50;64.20;;;;;;5132520;27;20047;-67
2022/09/03 12:07:00;;;;;;;3.67;0.93;;;27.30;64.60;;;;;;5134389;27;20071;-66
2022/09/03 12:09:58;;;;;;;5.28;0.90;;;27.30;64.60;;;;;;5132724;27;20042;-66
2022/09/03 12:12:44;;;;;;;3.88;0.88;;;27.10;64.80;;;;;;5132548;27;20122;-68
2022/09/03 12:15:24;;;;;;;3.05;1.05;;;27.00;65.90;;;;;;5132266;27;20118;-67
2022/09/03 12:18:18;;;;;;;5.07;0.75;;;26.90;65.20;;;;;;5115498;27;20042;-69
2022/09/03 12:20:49;;;;;;;2.22;0.70;;;26.80;64.90;;;;;;5132739;27;20040;-66
2022/09/03 12:23:28;;;;;;;2.33;1.00;;;26.80;65.50;;;;;;5115582;27;20435;-68
2022/09/03 12:25:54;;;;;;;1.52;0.70;;;26.80;65.50;;;;;;5132328;27;20092;-70
2022/09/03 12:28:27;;;;;;;1.27;0.80;;;26.80;66.00;;;;;;5133619;27;20030;-67
2022/09/03 12:30:53;;;;;;;2.78;0.90;;;26.70;65.60;;;;;;5132204;27;20035;-68
2022/09/03 12:33:20;;;;;;;1.10;0.77;;;26.70;65.80;;;;;;5132133;27;20035;-68
2022/09/03 12:35:57;;;;;;;3.92;0.70;;;26.70;66.00;;;;;;5132369;27;20088;-67
2022/09/03 12:38:28;;;;;;;3.55;0.75;;;26.60;65.50;;;;;;5131546;27;20042;-68
2022/09/03 12:40:54;;;;;;;2.87;0.70;;;26.50;65.40;;;;;;5131929;27;20039;-68
2022/09/03 12:43:27;;;;;;;3.08;1.15;;;26.40;65.30;;;;;;5131806;27;20039;-67
2022/09/03 12:45:53;;;;;;;1.88;0.90;;;26.20;65.00;;;;;;5131762;27;20096;-65
2022/09/03 12:48:19;;;;;;;4.75;0.93;;;26.10;65.50;;;;;;5131786;27;20089;-69
2022/09/03 12:50:47;;;;;;;5.93;1.13;;;26.00;65.50;;;;;;5133252;27;20083;-65
2022/09/03 12:53:23;;;;;;;4.65;0.80;;;26.00;65.80;;;;;;5131497;27;20075;-68
2022/09/03 12:55:52;;;;;;;2.42;0.90;;;26.00;65.10;;;;;;5132122;27;20527;-68
2022/09/03 12:58:30;;;;;;;3.20;1.00;;;26.00;65.50;;;;;;5131978;27;20497;-67
2022/09/03 13:01:18;;;;;;;1.45;0.70;;;25.90;65.60;;;;;;5132022;27;20477;-68
2022/09/03 13:04:08;;;;;;;4.00;0.70;;;25.90;66.00;;;;;;5131406;27;20051;-67
2022/09/03 13:06:41;;;;;;;2.55;0.95;;;25.90;66.00;;;;;;5131737;27;20039;-68
2022/09/03 13:09:09;;;;;;;3.33;0.75;;;25.80;66.00;;;;;;5131509;27;20114;-68
2022/09/03 13:11:36;;;;;;;4.00;0.70;;;25.70;66.10;;;;;;5131637;27;20043;-66
2022/09/03 13:14:09;;;;;;;3.15;0.70;;;25.70;66.30;;;;;;5113588;27;20050;-66
2022/09/03 13:16:48;;;;;;;3.42;0.90;;;25.70;66.20;;;;;;5131262;27;20435;-68